CheckWX is a tool to help pilots better visualize weather data.  It is not intended as a substitute for an official pre-flight weather briefing.

01:22:56 UTC

KJLN TAF
Joplin Regional Airport
Joplin, Missouri, USA
KJLN 232323Z 2400/2424 22024G40KT P6SM FEW090 FM240200 24026G40KT P6SM OVC025 FM240800 28022G35KT P6SM SCT070 WS020/32040KT FM241300 29012G22KT P6SM SKC

Feb-24@
00:00 UTC

Feb-24 @ 00:00 UTC

Feb-24@
02:00 UTC

Feb-24 @ 02:00 UTC

KJLN 232323Z 2400/2424 22024G40KT P6SM FEW090
Wind
  • 220° at 24 KTS
  • {Gusting to 40 KTS
Cloud Levels
  • Few at 9,000' AGL

Feb-24@
02:00 UTC

Feb-24 @ 02:00 UTC

Feb-24@
08:00 UTC

Feb-24 @ 08:00 UTC

FM240200 24026G40KT P6SM OVC025

From

From Standard forecast or significant change

Wind
  • 240° at 26 KTS
  • {Gusting to 40 KTS
Cloud Levels
  • Overcast at 2,500' AGL

Feb-24@
08:00 UTC

Feb-24 @ 08:00 UTC

Feb-24@
13:00 UTC

Feb-24 @ 13:00 UTC

FM240800 28022G35KT P6SM SCT070 WS020/32040KT

From

From Standard forecast or significant change

Wind
  • 280° at 22 KTS
  • {Gusting to 35 KTS
Cloud Levels
  • Scattered at 7,000' AGL

Feb-24@
13:00 UTC

Feb-24 @ 13:00 UTC

Feb-25@
00:00 UTC

Feb-25 @ 00:00 UTC

FM241300 29012G22KT P6SM SKC

From

From Standard forecast or significant change

Wind
  • 290° at 12 KTS
  • {Gusting to 22 KTS
Cloud Levels
  • Clear skies